sensor_id;sensor_type;location;lat;lon;timestamp;temperature;humidity
14144;DHT22;7152;48.348;10.980;2022-07-23T00:00:14;24.60;90.80
14144;DHT22;7152;48.348;10.980;2022-07-23T00:02:40;24.50;91.70
14144;DHT22;7152;48.348;10.980;2022-07-23T00:05:06;24.50;93.50
14144;DHT22;7152;48.348;10.980;2022-07-23T00:07:32;24.20;98.30
14144;DHT22;7152;48.348;10.980;2022-07-23T00:10:00;23.90;99.90
14144;DHT22;7152;48.348;10.980;2022-07-23T00:12:26;23.60;99.90
14144;DHT22;7152;48.348;10.980;2022-07-23T00:14:52;23.20;99.90
14144;DHT22;7152;48.348;10.980;2022-07-23T00:17:17;22.70;99.90
14144;DHT22;7152;48.348;10.980;2022-07-23T00:19:43;22.40;99.90
14144;DHT22;7152;48.348;10.980;2022-07-23T00:22:09;22.10;99.90
14144;DHT22;7152;48.348;10.980;2022-07-23T00:24:35;21.80;99.90
14144;DHT22;7152;48.348;10.980;2022-07-23T00:27:00;21.50;99.90
14144;DHT22;7152;48.348;10.980;2022-07-23T00:29:26;21.30;99.90
14144;DHT22;7152;48.348;10.980;2022-07-23T00:31:52;21.10;99.90
14144;DHT22;7152;48.348;10.980;2022-07-23T00:34:17;20.90;99.90
14144;DHT22;7152;48.348;10.980;2022-07-23T00:36:43;20.80;99.90
14144;DHT22;7152;48.348;10.980;2022-07-23T00:39:08;20.70;99.90
14144;DHT22;7152;48.348;10.980;2022-07-23T00:41:34;20.60;99.90
14144;DHT22;7152;48.348;10.980;2022-07-23T00:44:23;20.60;99.90
14144;DHT22;7152;48.348;10.980;2022-07-23T00:46:55;20.50;99.90
14144;DHT22;7152;48.348;10.980;2022-07-23T00:49:22;20.40;99.90
14144;DHT22;7152;48.348;10.980;2022-07-23T00:51:49;20.30;99.90
14144;DHT22;7152;48.348;10.980;2022-07-23T00:54:15;20.20;99.90
14144;DHT22;7152;48.348;10.980;2022-07-23T00:56:43;20.10;99.90
14144;DHT22;7152;48.348;10.980;2022-07-23T00:59:09;20.10;99.90
14144;DHT22;7152;48.348;10.980;2022-07-23T01:01:35;19.90;99.90
14144;DHT22;7152;48.348;10.980;2022-07-23T01:04:00;19.90;99.90
14144;DHT22;7152;48.348;10.980;2022-07-23T01:06:26;19.70;99.90
14144;DHT22;7152;48.348;10.980;2022-07-23T01:08:53;19.60;99.90
14144;DHT22;7152;48.348;10.980;2022-07-23T01:11:20;19.50;99.90
14144;DHT22;7152;48.348;10.980;2022-07-23T01:13:46;19.50;99.90
14144;DHT22;7152;48.348;10.980;2022-07-23T01:16:12;19.50;99.90
14144;DHT22;7152;48.348;10.980;2022-07-23T01:18:38;19.50;99.90
14144;DHT22;7152;48.348;10.980;2022-07-23T01:21:04;19.50;99.90
14144;DHT22;7152;48.348;10.980;2022-07-23T01:23:30;19.50;99.90
14144;DHT22;7152;48.348;10.980;2022-07-23T01:25:55;19.50;99.90
14144;DHT22;7152;48.348;10.980;2022-07-23T01:28:21;19.50;99.90
14144;DHT22;7152;48.348;10.980;2022-07-23T01:30:47;19.50;99.90
14144;DHT22;7152;48.348;10.980;2022-07-23T01:33:13;19.40;99.90
14144;DHT22;7152;48.348;10.980;2022-07-23T01:35:39;19.30;99.90
14144;DHT22;7152;48.348;10.980;2022-07-23T01:38:05;19.30;99.90
14144;DHT22;7152;48.348;10.980;2022-07-23T01:40:31;19.30;99.90
14144;DHT22;7152;48.348;10.980;2022-07-23T01:42:56;19.20;99.90
14144;DHT22;7152;48.348;10.980;2022-07-23T01:45:22;19.10;99.90
14144;DHT22;7152;48.348;10.980;2022-07-23T01:47:48;19.20;99.90
14144;DHT22;7152;48.348;10.980;2022-07-23T01:50:14;19.10;99.90
14144;DHT22;7152;48.348;10.980;2022-07-23T01:52:39;19.20;99.90
14144;DHT22;7152;48.348;10.980;2022-07-23T01:55:06;19.20;99.90
14144;DHT22;7152;48.348;10.980;2022-07-23T01:57:32;19.20;99.90
14144;DHT22;7152;48.348;10.980;2022-07-23T01:59:58;19.20;99.90
14144;DHT22;7152;48.348;10.980;2022-07-23T02:02:24;19.20;99.90
14144;DHT22;7152;48.348;10.980;2022-07-23T02:04:50;19.20;99.90
14144;DHT22;7152;48.348;10.980;2022-07-23T02:07:16;19.20;99.90
14144;DHT22;7152;48.348;10.980;2022-07-23T02:09:41;19.20;99.90
14144;DHT22;7152;48.348;10.980;2022-07-23T02:12:07;19.10;99.90
14144;DHT22;7152;48.348;10.980;2022-07-23T02:14:33;19.10;99.90
14144;DHT22;7152;48.348;10.980;2022-07-23T02:16:59;19.00;99.90
14144;DHT22;7152;48.348;10.980;2022-07-23T02:19:25;19.00;99.90
14144;DHT22;7152;48.348;10.980;2022-07-23T02:21:51;19.00;99.90
14144;DHT22;7152;48.348;10.980;2022-07-23T02:24:17;19.00;99.90
14144;DHT22;7152;48.348;10.980;2022-07-23T02:26:42;19.00;99.90
14144;DHT22;7152;48.348;10.980;2022-07-23T02:29:08;19.00;99.90
14144;DHT22;7152;48.348;10.980;2022-07-23T02:31:34;19.00;99.90
14144;DHT22;7152;48.348;10.980;2022-07-23T02:34:00;19.00;99.90
14144;DHT22;7152;48.348;10.980;2022-07-23T02:36:26;19.10;99.90
14144;DHT22;7152;48.348;10.980;2022-07-23T02:38:52;19.10;99.90
14144;DHT22;7152;48.348;10.980;2022-07-23T02:41:17;19.20;99.90
14144;DHT22;7152;48.348;10.980;2022-07-23T02:43:43;19.20;99.90
14144;DHT22;7152;48.348;10.980;2022-07-23T02:46:08;19.20;99.90
14144;DHT22;7152;48.348;10.980;2022-07-23T02:48:34;19.20;99.90
14144;DHT22;7152;48.348;10.980;2022-07-23T02:51:00;19.20;99.90
14144;DHT22;7152;48.348;10.980;2022-07-23T02:53:26;19.20;99.90
14144;DHT22;7152;48.348;10.980;2022-07-23T02:55:51;19.20;99.90
14144;DHT22;7152;48.348;10.980;2022-07-23T02:58:17;19.20;99.90
14144;DHT22;7152;48.348;10.980;2022-07-23T03:00:44;19.20;99.90
14144;DHT22;7152;48.348;10.980;2022-07-23T03:03:10;19.10;99.90
14144;DHT22;7152;48.348;10.980;2022-07-23T03:05:35;19.20;99.90
14144;DHT22;7152;48.348;10.980;2022-07-23T03:08:01;19.10;99.90
14144;DHT22;7152;48.348;10.980;2022-07-23T03:10:27;19.10;99.90
14144;DHT22;7152;48.348;10.980;2022-07-23T03:12:52;19.10;99.90
14144;DHT22;7152;48.348;10.980;2022-07-23T03:15:18;19.10;99.90
14144;DHT22;7152;48.348;10.980;2022-07-23T03:17:44;19.00;99.90
14144;DHT22;7152;48.348;10.980;2022-07-23T03:20:10;19.00;99.90
14144;DHT22;7152;48.348;10.980;2022-07-23T03:22:35;19.00;99.90
14144;DHT22;7152;48.348;10.980;2022-07-23T03:25:01;19.00;99.90
14144;DHT22;7152;48.348;10.980;2022-07-23T03:27:28;18.90;99.90
14144;DHT22;7152;48.348;10.980;2022-07-23T03:29:56;18.90;99.90
14144;DHT22;7152;48.348;10.980;2022-07-23T03:32:22;18.90;99.90
14144;DHT22;7152;48.348;10.980;2022-07-23T03:34:49;18.90;99.90
14144;DHT22;7152;48.348;10.980;2022-07-23T03:37:15;18.90;99.90
14144;DHT22;7152;48.348;10.980;2022-07-23T03:39:41;18.80;99.90
14144;DHT22;7152;48.348;10.980;2022-07-23T03:42:07;18.90;99.90
14144;DHT22;7152;48.348;10.980;2022-07-23T03:44:33;18.80;99.90
14144;DHT22;7152;48.348;10.980;2022-07-23T03:46:59;18.80;99.90
14144;DHT22;7152;48.348;10.980;2022-07-23T03:49:24;18.80;99.90
14144;DHT22;7152;48.348;10.980;2022-07-23T03:51:50;18.80;99.90
14144;DHT22;7152;48.348;10.980;2022-07-23T03:54:16;18.80;99.90
14144;DHT22;7152;48.348;10.980;2022-07-23T03:56:42;18.80;99.90
14144;DHT22;7152;48.348;10.980;2022-07-23T03:59:08;18.80;99.90
14144;DHT22;7152;48.348;10.980;2022-07-23T04:01:34;18.90;99.90
14144;DHT22;7152;48.348;10.980;2022-07-23T04:04:00;18.90;99.90
14144;DHT22;7152;48.348;10.980;2022-07-23T04:06:26;18.80;99.90
14144;DHT22;7152;48.348;10.980;2022-07-23T04:08:51;18.80;99.90
14144;DHT22;7152;48.348;10.980;2022-07-23T04:11:17;18.90;99.90
14144;DHT22;7152;48.348;10.980;2022-07-23T04:13:43;18.90;99.90
14144;DHT22;7152;48.348;10.980;2022-07-23T04:16:08;18.90;99.90
14144;DHT22;7152;48.348;10.980;2022-07-23T04:18:34;18.90;99.90
14144;DHT22;7152;48.348;10.980;2022-07-23T04:20:59;18.90;99.90
14144;DHT22;7152;48.348;10.980;2022-07-23T04:23:25;18.90;99.90
14144;DHT22;7152;48.348;10.980;2022-07-23T04:25:51;19.00;99.90
14144;DHT22;7152;48.348;10.980;2022-07-23T04:28:16;19.00;99.90
14144;DHT22;7152;48.348;10.980;2022-07-23T04:30:42;19.00;99.90
14144;DHT22;7152;48.348;10.980;2022-07-23T04:33:08;19.10;99.90
14144;DHT22;7152;48.348;10.980;2022-07-23T04:35:34;19.10;99.90
14144;DHT22;7152;48.348;10.980;2022-07-23T04:38:00;19.20;99.90
14144;DHT22;7152;48.348;10.980;2022-07-23T04:40:26;19.20;99.90
14144;DHT22;7152;48.348;10.980;2022-07-23T04:42:52;19.20;99.90
14144;DHT22;7152;48.348;10.980;2022-07-23T04:45:18;19.30;99.90
14144;DHT22;7152;48.348;10.980;2022-07-23T04:47:44;19.30;99.90
14144;DHT22;7152;48.348;10.980;2022-07-23T04:50:10;19.40;99.90
14144;DHT22;7152;48.348;10.980;2022-07-23T04:52:35;19.30;99.90
14144;DHT22;7152;48.348;10.980;2022-07-23T04:55:01;19.30;99.90
14144;DHT22;7152;48.348;10.980;2022-07-23T04:57:27;19.40;99.90
14144;DHT22;7152;48.348;10.980;2022-07-23T04:59:53;19.40;99.90
14144;DHT22;7152;48.348;10.980;2022-07-23T05:02:18;19.40;99.90
14144;DHT22;7152;48.348;10.980;2022-07-23T05:04:44;19.40;99.90
14144;DHT22;7152;48.348;10.980;2022-07-23T05:07:10;19.50;99.90
14144;DHT22;7152;48.348;10.980;2022-07-23T05:09:35;19.50;99.90
14144;DHT22;7152;48.348;10.980;2022-07-23T05:12:01;19.50;99.90
14144;DHT22;7152;48.348;10.980;2022-07-23T05:14:27;19.50;99.90
14144;DHT22;7152;48.348;10.980;2022-07-23T05:16:53;19.50;99.90
14144;DHT22;7152;48.348;10.980;2022-07-23T05:19:19;19.60;99.90
14144;DHT22;7152;48.348;10.980;2022-07-23T05:21:45;19.50;99.90
14144;DHT22;7152;48.348;10.980;2022-07-23T05:24:10;19.50;99.90
14144;DHT22;7152;48.348;10.980;2022-07-23T05:26:36;19.60;99.90
14144;DHT22;7152;48.348;10.980;2022-07-23T05:29:01;19.70;99.90
14144;DHT22;7152;48.348;10.980;2022-07-23T05:31:27;19.70;99.90
14144;DHT22;7152;48.348;10.980;2022-07-23T05:33:53;19.80;99.90
14144;DHT22;7152;48.348;10.980;2022-07-23T05:36:18;19.80;99.90
14144;DHT22;7152;48.348;10.980;2022-07-23T05:38:44;19.80;99.90
14144;DHT22;7152;48.348;10.980;2022-07-23T05:41:10;19.80;99.90
14144;DHT22;7152;48.348;10.980;2022-07-23T05:43:35;19.80;99.90
14144;DHT22;7152;48.348;10.980;2022-07-23T05:46:01;19.80;99.90
14144;DHT22;7152;48.348;10.980;2022-07-23T05:48:26;19.80;99.90
14144;DHT22;7152;48.348;10.980;2022-07-23T05:50:52;19.80;99.90
14144;DHT22;7152;48.348;10.980;2022-07-23T05:53:19;19.90;99.90
14144;DHT22;7152;48.348;10.980;2022-07-23T05:55:44;19.90;99.90
14144;DHT22;7152;48.348;10.980;2022-07-23T05:58:10;19.90;99.90
14144;DHT22;7152;48.348;10.980;2022-07-23T06:00:35;19.90;99.90
14144;DHT22;7152;48.348;10.980;2022-07-23T06:03:01;19.90;99.90
14144;DHT22;7152;48.348;10.980;2022-07-23T06:05:27;19.80;99.90
14144;DHT22;7152;48.348;10.980;2022-07-23T06:07:53;19.80;99.90
14144;DHT22;7152;48.348;10.980;2022-07-23T06:10:19;19.80;99.90
14144;DHT22;7152;48.348;10.980;2022-07-23T06:12:45;19.80;99.90
14144;DHT22;7152;48.348;10.980;2022-07-23T06:15:11;19.80;99.90
14144;DHT22;7152;48.348;10.980;2022-07-23T06:17:37;19.80;99.90
14144;DHT22;7152;48.348;10.980;2022-07-23T06:20:06;19.70;99.90
14144;DHT22;7152;48.348;10.980;2022-07-23T06:22:31;19.60;99.90
14144;DHT22;7152;48.348;10.980;2022-07-23T06:24:57;19.60;99.90
14144;DHT22;7152;48.348;10.980;2022-07-23T06:27:23;19.50;99.90
14144;DHT22;7152;48.348;10.980;2022-07-23T06:29:48;19.50;99.90
14144;DHT22;7152;48.348;10.980;2022-07-23T06:32:14;19.60;99.90
14144;DHT22;7152;48.348;10.980;2022-07-23T06:34:40;19.60;99.90
14144;DHT22;7152;48.348;10.980;2022-07-23T06:37:05;19.60;99.90
14144;DHT22;7152;48.348;10.980;2022-07-23T06:39:31;19.70;99.90
14144;DHT22;7152;48.348;10.980;2022-07-23T06:41:57;19.80;99.90
14144;DHT22;7152;48.348;10.980;2022-07-23T06:44:22;19.90;99.90
14144;DHT22;7152;48.348;10.980;2022-07-23T06:46:48;19.90;99.90
14144;DHT22;7152;48.348;10.980;2022-07-23T06:49:14;19.90;99.90
14144;DHT22;7152;48.348;10.980;2022-07-23T06:51:39;20.00;99.90
14144;DHT22;7152;48.348;10.980;2022-07-23T06:54:05;20.00;99.90
14144;DHT22;7152;48.348;10.980;2022-07-23T06:56:31;20.00;99.90
14144;DHT22;7152;48.348;10.980;2022-07-23T06:58:56;20.00;99.90
14144;DHT22;7152;48.348;10.980;2022-07-23T07:01:22;20.00;99.90
14144;DHT22;7152;48.348;10.980;2022-07-23T07:03:48;20.00;99.90
14144;DHT22;7152;48.348;10.980;2022-07-23T07:06:14;20.00;99.90
14144;DHT22;7152;48.348;10.980;2022-07-23T07:08:39;20.00;99.90
14144;DHT22;7152;48.348;10.980;2022-07-23T07:11:05;20.00;99.90
14144;DHT22;7152;48.348;10.980;2022-07-23T07:13:31;20.00;99.90
14144;DHT22;7152;48.348;10.980;2022-07-23T07:15:57;20.00;99.90
14144;DHT22;7152;48.348;10.980;2022-07-23T07:18:22;20.00;99.90
14144;DHT22;7152;48.348;10.980;2022-07-23T07:20:48;20.00;99.90
14144;DHT22;7152;48.348;10.980;2022-07-23T07:23:14;20.00;99.90
14144;DHT22;7152;48.348;10.980;2022-07-23T07:25:40;20.00;99.90
14144;DHT22;7152;48.348;10.980;2022-07-23T07:28:06;20.00;99.90
14144;DHT22;7152;48.348;10.980;2022-07-23T07:30:31;20.00;99.90
14144;DHT22;7152;48.348;10.980;2022-07-23T07:32:57;20.00;99.90
14144;DHT22;7152;48.348;10.980;2022-07-23T07:35:23;20.00;99.90
14144;DHT22;7152;48.348;10.980;2022-07-23T07:37:48;20.00;99.90
14144;DHT22;7152;48.348;10.980;2022-07-23T07:40:14;20.00;99.90
14144;DHT22;7152;48.348;10.980;2022-07-23T07:42:47;20.10;99.90
14144;DHT22;7152;48.348;10.980;2022-07-23T07:45:13;20.10;99.90
14144;DHT22;7152;48.348;10.980;2022-07-23T07:47:39;20.20;99.90
14144;DHT22;7152;48.348;10.980;2022-07-23T07:50:05;20.20;99.90
14144;DHT22;7152;48.348;10.980;2022-07-23T07:52:31;20.30;99.90
14144;DHT22;7152;48.348;10.980;2022-07-23T07:54:56;20.50;99.90
14144;DHT22;7152;48.348;10.980;2022-07-23T07:57:22;20.60;99.90
14144;DHT22;7152;48.348;10.980;2022-07-23T07:59:47;20.80;99.90
14144;DHT22;7152;48.348;10.980;2022-07-23T08:02:13;20.80;99.90
14144;DHT22;7152;48.348;10.980;2022-07-23T08:04:39;21.00;99.90
14144;DHT22;7152;48.348;10.980;2022-07-23T08:07:04;21.00;99.90
14144;DHT22;7152;48.348;10.980;2022-07-23T08:09:30;21.10;99.90
14144;DHT22;7152;48.348;10.980;2022-07-23T08:11:56;21.20;99.90
14144;DHT22;7152;48.348;10.980;2022-07-23T08:14:21;21.20;99.90
14144;DHT22;7152;48.348;10.980;2022-07-23T08:16:47;21.30;99.90
14144;DHT22;7152;48.348;10.980;2022-07-23T08:19:12;21.30;99.90
14144;DHT22;7152;48.348;10.980;2022-07-23T08:21:38;21.40;99.90
14144;DHT22;7152;48.348;10.980;2022-07-23T08:24:04;21.30;99.90
14144;DHT22;7152;48.348;10.980;2022-07-23T08:26:29;21.30;99.90
14144;DHT22;7152;48.348;10.980;2022-07-23T08:28:55;21.20;99.90
14144;DHT22;7152;48.348;10.980;2022-07-23T08:31:21;21.30;99.90
14144;DHT22;7152;48.348;10.980;2022-07-23T08:33:46;21.50;99.90
14144;DHT22;7152;48.348;10.980;2022-07-23T08:36:12;21.70;99.90
14144;DHT22;7152;48.348;10.980;2022-07-23T08:38:38;21.90;99.90
14144;DHT22;7152;48.348;10.980;2022-07-23T08:41:07;22.20;99.90
14144;DHT22;7152;48.348;10.980;2022-07-23T08:43:33;22.30;99.90
14144;DHT22;7152;48.348;10.980;2022-07-23T08:46:02;22.60;99.90
14144;DHT22;7152;48.348;10.980;2022-07-23T08:48:30;22.80;99.90
14144;DHT22;7152;48.348;10.980;2022-07-23T08:50:58;23.00;99.90
14144;DHT22;7152;48.348;10.980;2022-07-23T08:53:27;23.10;99.90
14144;DHT22;7152;48.348;10.980;2022-07-23T08:55:55;23.20;99.90
14144;DHT22;7152;48.348;10.980;2022-07-23T08:58:21;23.40;99.90
14144;DHT22;7152;48.348;10.980;2022-07-23T09:00:48;23.50;99.90
14144;DHT22;7152;48.348;10.980;2022-07-23T09:03:22;23.60;99.90
14144;DHT22;7152;48.348;10.980;2022-07-23T09:05:52;23.70;99.90
14144;DHT22;7152;48.348;10.980;2022-07-23T09:08:18;23.80;99.90
14144;DHT22;7152;48.348;10.980;2022-07-23T09:10:54;24.00;99.90
14144;DHT22;7152;48.348;10.980;2022-07-23T09:13:41;24.10;99.90
14144;DHT22;7152;48.348;10.980;2022-07-23T09:16:14;24.30;99.90
14144;DHT22;7152;48.348;10.980;2022-07-23T09:18:52;24.30;99.90
14144;DHT22;7152;48.348;10.980;2022-07-23T09:26:21;24.20;99.90
14144;DHT22;7152;48.348;10.980;2022-07-23T09:29:06;24.20;99.90
14144;DHT22;7152;48.348;10.980;2022-07-23T09:36:42;24.50;99.90
14144;DHT22;7152;48.348;10.980;2022-07-23T09:39:08;24.50;99.90
14144;DHT22;7152;48.348;10.980;2022-07-23T09:41:40;24.60;99.90
14144;DHT22;7152;48.348;10.980;2022-07-23T09:44:17;24.70;99.90
14144;DHT22;7152;48.348;10.980;2022-07-23T09:46:45;24.80;99.90
14144;DHT22;7152;48.348;10.980;2022-07-23T09:51:46;25.20;99.90
14144;DHT22;7152;48.348;10.980;2022-07-23T09:54:26;25.20;99.90
14144;DHT22;7152;48.348;10.980;2022-07-23T09:56:53;25.30;99.90
14144;DHT22;7152;48.348;10.980;2022-07-23T09:59:23;25.50;99.90
14144;DHT22;7152;48.348;10.980;2022-07-23T10:01:50;25.60;99.90
14144;DHT22;7152;48.348;10.980;2022-07-23T10:04:18;25.70;99.90
14144;DHT22;7152;48.348;10.980;2022-07-23T10:06:45;26.00;99.90
14144;DHT22;7152;48.348;10.980;2022-07-23T10:09:12;26.00;99.90
14144;DHT22;7152;48.348;10.980;2022-07-23T10:11:41;26.10;99.90
14144;DHT22;7152;48.348;10.980;2022-07-23T10:14:07;26.30;99.90
14144;DHT22;7152;48.348;10.980;2022-07-23T10:16:33;26.40;99.90
14144;DHT22;7152;48.348;10.980;2022-07-23T10:18:59;26.60;99.90
14144;DHT22;7152;48.348;10.980;2022-07-23T10:21:39;26.80;99.90
14144;DHT22;7152;48.348;10.980;2022-07-23T10:24:30;27.10;99.90
14144;DHT22;7152;48.348;10.980;2022-07-23T10:30:06;27.40;99.90
14144;DHT22;7152;48.348;10.980;2022-07-23T10:32:53;27.60;99.90
14144;DHT22;7152;48.348;10.980;2022-07-23T10:35:49;27.70;99.90
14144;DHT22;7152;48.348;10.980;2022-07-23T10:38:23;27.90;99.90
14144;DHT22;7152;48.348;10.980;2022-07-23T10:43:20;28.00;99.90
14144;DHT22;7152;48.348;10.980;2022-07-23T10:45:45;28.00;99.90
14144;DHT22;7152;48.348;10.980;2022-07-23T10:48:14;28.20;99.90
14144;DHT22;7152;48.348;10.980;2022-07-23T10:50:40;28.20;99.90
14144;DHT22;7152;48.348;10.980;2022-07-23T10:58:04;29.00;99.90
14144;DHT22;7152;48.348;10.980;2022-07-23T11:00:35;29.50;99.90
14144;DHT22;7152;48.348;10.980;2022-07-23T11:03:27;30.00;99.90
14144;DHT22;7152;48.348;10.980;2022-07-23T11:05:51;30.50;99.90
14144;DHT22;7152;48.348;10.980;2022-07-23T11:08:18;30.60;99.90
14144;DHT22;7152;48.348;10.980;2022-07-23T11:13:31;31.20;99.90
14144;DHT22;7152;48.348;10.980;2022-07-23T11:16:08;31.70;99.90
14144;DHT22;7152;48.348;10.980;2022-07-23T11:34:42;32.50;99.90
14144;DHT22;7152;48.348;10.980;2022-07-23T11:37:10;32.60;99.90
14144;DHT22;7152;48.348;10.980;2022-07-23T11:39:37;33.10;99.90
14144;DHT22;7152;48.348;10.980;2022-07-23T11:42:04;33.40;99.90
14144;DHT22;7152;48.348;10.980;2022-07-23T11:44:34;32.90;99.90
14144;DHT22;7152;48.348;10.980;2022-07-23T11:47:05;32.70;99.90
14144;DHT22;7152;48.348;10.980;2022-07-23T11:49:31;32.50;99.90
14144;DHT22;7152;48.348;10.980;2022-07-23T11:52:13;32.30;99.90
14144;DHT22;7152;48.348;10.980;2022-07-23T11:55:02;32.20;99.90
14144;DHT22;7152;48.348;10.980;2022-07-23T11:57:30;32.60;99.90
14144;DHT22;7152;48.348;10.980;2022-07-23T12:00:05;33.10;99.90
14144;DHT22;7152;48.348;10.980;2022-07-23T12:02:32;32.90;99.90
14144;DHT22;7152;48.348;10.980;2022-07-23T12:04:57;32.80;99.90
14144;DHT22;7152;48.348;10.980;2022-07-23T12:07:30;33.50;99.90
14144;DHT22;7152;48.348;10.980;2022-07-23T12:09:58;33.70;99.90
14144;DHT22;7152;48.348;10.980;2022-07-23T12:12:24;33.30;99.90
14144;DHT22;7152;48.348;10.980;2022-07-23T12:14:57;33.50;99.90
14144;DHT22;7152;48.348;10.980;2022-07-23T12:17:33;34.10;99.90
14144;DHT22;7152;48.348;10.980;2022-07-23T12:20:01;34.60;99.90
14144;DHT22;7152;48.348;10.980;2022-07-23T12:22:44;34.60;99.90
14144;DHT22;7152;48.348;10.980;2022-07-23T12:25:16;34.00;99.90
14144;DHT22;7152;48.348;10.980;2022-07-23T12:27:42;33.40;99.90
14144;DHT22;7152;48.348;10.980;2022-07-23T12:30:20;32.80;99.90
14144;DHT22;7152;48.348;10.980;2022-07-23T12:32:48;32.30;99.90
14144;DHT22;7152;48.348;10.980;2022-07-23T12:35:14;31.80;99.90
14144;DHT22;7152;48.348;10.980;2022-07-23T12:37:42;31.60;99.90
14144;DHT22;7152;48.348;10.980;2022-07-23T12:40:31;31.50;99.90
14144;DHT22;7152;48.348;10.980;2022-07-23T12:43:09;31.40;99.90
14144;DHT22;7152;48.348;10.980;2022-07-23T12:45:57;32.30;99.90
14144;DHT22;7152;48.348;10.980;2022-07-23T12:48:29;33.10;99.90
14144;DHT22;7152;48.348;10.980;2022-07-23T12:53:26;34.50;99.90
14144;DHT22;7152;48.348;10.980;2022-07-23T12:56:05;34.50;99.90
14144;DHT22;7152;48.348;10.980;2022-07-23T12:58:50;34.10;99.80
14144;DHT22;7152;48.348;10.980;2022-07-23T13:01:25;34.20;99.10
14144;DHT22;7152;48.348;10.980;2022-07-23T13:06:21;34.20;99.70
14144;DHT22;7152;48.348;10.980;2022-07-23T13:08:47;33.60;99.90
14144;DHT22;7152;48.348;10.980;2022-07-23T13:11:12;33.30;99.60
14144;DHT22;7152;48.348;10.980;2022-07-23T13:13:38;33.10;99.70
14144;DHT22;7152;48.348;10.980;2022-07-23T13:16:04;33.50;99.80
14144;DHT22;7152;48.348;10.980;2022-07-23T13:18:30;33.40;99.80
14144;DHT22;7152;48.348;10.980;2022-07-23T13:20:56;33.30;99.80
14144;DHT22;7152;48.348;10.980;2022-07-23T13:23:23;33.10;99.80
14144;DHT22;7152;48.348;10.980;2022-07-23T13:25:49;33.10;99.40
14144;DHT22;7152;48.348;10.980;2022-07-23T13:28:16;33.20;99.40
14144;DHT22;7152;48.348;10.980;2022-07-23T13:30:43;32.90;99.40
14144;DHT22;7152;48.348;10.980;2022-07-23T13:33:09;32.60;99.40
14144;DHT22;7152;48.348;10.980;2022-07-23T13:35:36;32.30;99.50
14144;DHT22;7152;48.348;10.980;2022-07-23T13:38:03;32.50;99.80
14144;DHT22;7152;48.348;10.980;2022-07-23T13:40:29;33.10;99.70
14144;DHT22;7152;48.348;10.980;2022-07-23T13:42:55;34.20;99.50
14144;DHT22;7152;48.348;10.980;2022-07-23T13:45:21;35.00;98.70
14144;DHT22;7152;48.348;10.980;2022-07-23T13:47:47;35.00;98.20
14144;DHT22;7152;48.348;10.980;2022-07-23T13:50:13;35.10;97.60
14144;DHT22;7152;48.348;10.980;2022-07-23T13:52:41;35.60;97.20
14144;DHT22;7152;48.348;10.980;2022-07-23T13:55:07;35.80;96.90
14144;DHT22;7152;48.348;10.980;2022-07-23T13:57:34;35.80;96.50
14144;DHT22;7152;48.348;10.980;2022-07-23T13:59:59;35.30;96.20
14144;DHT22;7152;48.348;10.980;2022-07-23T14:02:25;35.10;96.00
14144;DHT22;7152;48.348;10.980;2022-07-23T14:04:52;35.20;95.90
14144;DHT22;7152;48.348;10.980;2022-07-23T14:07:18;35.00;96.00
14144;DHT22;7152;48.348;10.980;2022-07-23T14:09:44;34.40;95.90
14144;DHT22;7152;48.348;10.980;2022-07-23T14:12:09;33.70;96.10
14144;DHT22;7152;48.348;10.980;2022-07-23T14:14:35;33.10;96.10
14144;DHT22;7152;48.348;10.980;2022-07-23T14:17:01;32.50;96.60
14144;DHT22;7152;48.348;10.980;2022-07-23T14:19:27;32.10;97.10
14144;DHT22;7152;48.348;10.980;2022-07-23T14:21:53;31.60;97.20
14144;DHT22;7152;48.348;10.980;2022-07-23T14:24:18;31.50;97.30
14144;DHT22;7152;48.348;10.980;2022-07-23T14:26:44;31.80;97.20
14144;DHT22;7152;48.348;10.980;2022-07-23T14:29:10;32.50;97.40
14144;DHT22;7152;48.348;10.980;2022-07-23T14:31:35;33.30;97.30
14144;DHT22;7152;48.348;10.980;2022-07-23T14:34:01;34.00;97.10
14144;DHT22;7152;48.348;10.980;2022-07-23T14:36:27;34.00;96.10
14144;DHT22;7152;48.348;10.980;2022-07-23T14:38:53;34.40;95.80
14144;DHT22;7152;48.348;10.980;2022-07-23T14:41:19;35.10;95.60
14144;DHT22;7152;48.348;10.980;2022-07-23T14:43:44;35.60;95.00
14144;DHT22;7152;48.348;10.980;2022-07-23T14:46:12;36.20;94.30
14144;DHT22;7152;48.348;10.980;2022-07-23T14:48:37;36.80;93.40
14144;DHT22;7152;48.348;10.980;2022-07-23T14:51:03;37.30;93.00
14144;DHT22;7152;48.348;10.980;2022-07-23T14:53:29;37.70;92.50
14144;DHT22;7152;48.348;10.980;2022-07-23T14:55:55;37.80;91.60
14144;DHT22;7152;48.348;10.980;2022-07-23T14:58:23;37.50;90.60
14144;DHT22;7152;48.348;10.980;2022-07-23T15:00:49;37.20;89.50
14144;DHT22;7152;48.348;10.980;2022-07-23T15:03:15;36.70;89.00
14144;DHT22;7152;48.348;10.980;2022-07-23T15:05:40;35.60;89.40
14144;DHT22;7152;48.348;10.980;2022-07-23T15:08:06;34.50;90.20
14144;DHT22;7152;48.348;10.980;2022-07-23T15:10:32;33.60;90.70
14144;DHT22;7152;48.348;10.980;2022-07-23T15:12:57;32.70;91.40
14144;DHT22;7152;48.348;10.980;2022-07-23T15:15:23;31.70;91.90
14144;DHT22;7152;48.348;10.980;2022-07-23T15:17:49;31.00;92.30
14144;DHT22;7152;48.348;10.980;2022-07-23T15:20:15;30.50;93.00
14144;DHT22;7152;48.348;10.980;2022-07-23T15:22:40;30.00;93.70
14144;DHT22;7152;48.348;10.980;2022-07-23T15:25:07;29.60;94.10
14144;DHT22;7152;48.348;10.980;2022-07-23T15:27:32;29.30;94.60
14144;DHT22;7152;48.348;10.980;2022-07-23T15:29:58;29.10;95.10
14144;DHT22;7152;48.348;10.980;2022-07-23T15:32:24;28.90;95.60
14144;DHT22;7152;48.348;10.980;2022-07-23T15:34:53;28.80;96.10
14144;DHT22;7152;48.348;10.980;2022-07-23T15:37:19;28.50;96.50
14144;DHT22;7152;48.348;10.980;2022-07-23T15:39:44;28.40;96.80
14144;DHT22;7152;48.348;10.980;2022-07-23T15:42:10;28.20;97.30
14144;DHT22;7152;48.348;10.980;2022-07-23T15:44:36;28.10;97.50
14144;DHT22;7152;48.348;10.980;2022-07-23T15:47:02;28.00;97.90
14144;DHT22;7152;48.348;10.980;2022-07-23T15:49:28;27.90;98.20
14144;DHT22;7152;48.348;10.980;2022-07-23T15:51:54;27.70;98.70
14144;DHT22;7152;48.348;10.980;2022-07-23T15:54:21;27.60;98.90
14144;DHT22;7152;48.348;10.980;2022-07-23T15:56:47;27.50;99.10
14144;DHT22;7152;48.348;10.980;2022-07-23T15:59:13;27.50;99.30
14144;DHT22;7152;48.348;10.980;2022-07-23T16:01:38;27.60;99.50
14144;DHT22;7152;48.348;10.980;2022-07-23T16:04:04;27.90;99.60
14144;DHT22;7152;48.348;10.980;2022-07-23T16:06:32;28.30;99.50
14144;DHT22;7152;48.348;10.980;2022-07-23T16:08:58;28.80;99.10
14144;DHT22;7152;48.348;10.980;2022-07-23T16:11:25;30.10;98.80
14144;DHT22;7152;48.348;10.980;2022-07-23T16:13:51;31.80;98.30
14144;DHT22;7152;48.348;10.980;2022-07-23T16:16:16;33.20;97.50